sensor_id;sensor_type;location;lat;lon;timestamp;temperature;humidity
34099;DHT22;20374;49.474;10.944;2022-07-29T00:00:24;21.20;69.50
34099;DHT22;20374;49.474;10.944;2022-07-29T00:02:49;21.20;71.10
34099;DHT22;20374;49.474;10.944;2022-07-29T00:05:15;21.20;70.50
34099;DHT22;20374;49.474;10.944;2022-07-29T00:07:41;21.20;70.90
34099;DHT22;20374;49.474;10.944;2022-07-29T00:10:07;21.20;71.10
34099;DHT22;20374;49.474;10.944;2022-07-29T00:12:33;21.20;70.10
34099;DHT22;20374;49.474;10.944;2022-07-29T00:14:59;21.20;70.10
34099;DHT22;20374;49.474;10.944;2022-07-29T00:17:25;21.20;69.30
34099;DHT22;20374;49.474;10.944;2022-07-29T00:19:51;21.30;68.10
34099;DHT22;20374;49.474;10.944;2022-07-29T00:22:17;21.30;68.00
34099;DHT22;20374;49.474;10.944;2022-07-29T00:24:43;21.30;69.50
34099;DHT22;20374;49.474;10.944;2022-07-29T00:27:09;21.30;67.90
34099;DHT22;20374;49.474;10.944;2022-07-29T00:29:35;21.30;69.10
34099;DHT22;20374;49.474;10.944;2022-07-29T00:32:02;21.30;69.40
34099;DHT22;20374;49.474;10.944;2022-07-29T00:34:28;21.20;69.80
34099;DHT22;20374;49.474;10.944;2022-07-29T00:37:12;21.20;69.10
34099;DHT22;20374;49.474;10.944;2022-07-29T00:39:38;21.20;70.30
34099;DHT22;20374;49.474;10.944;2022-07-29T00:42:05;21.20;69.10
34099;DHT22;20374;49.474;10.944;2022-07-29T00:44:32;21.20;66.90
34099;DHT22;20374;49.474;10.944;2022-07-29T00:47:04;21.30;66.50
34099;DHT22;20374;49.474;10.944;2022-07-29T00:49:30;21.30;66.40
34099;DHT22;20374;49.474;10.944;2022-07-29T00:51:56;21.30;67.40
34099;DHT22;20374;49.474;10.944;2022-07-29T00:54:22;21.30;68.90
34099;DHT22;20374;49.474;10.944;2022-07-29T00:56:49;21.40;66.30
34099;DHT22;20374;49.474;10.944;2022-07-29T00:59:15;21.40;67.60
34099;DHT22;20374;49.474;10.944;2022-07-29T01:01:41;21.30;67.60
34099;DHT22;20374;49.474;10.944;2022-07-29T01:04:07;21.20;69.20
34099;DHT22;20374;49.474;10.944;2022-07-29T01:06:33;21.10;70.00
34099;DHT22;20374;49.474;10.944;2022-07-29T01:09:00;21.10;67.90
34099;DHT22;20374;49.474;10.944;2022-07-29T01:11:27;21.10;68.70
34099;DHT22;20374;49.474;10.944;2022-07-29T01:13:53;21.10;68.80
34099;DHT22;20374;49.474;10.944;2022-07-29T01:16:29;21.10;68.10
34099;DHT22;20374;49.474;10.944;2022-07-29T01:19:07;21.20;71.80
34099;DHT22;20374;49.474;10.944;2022-07-29T01:21:51;21.10;71.10
34099;DHT22;20374;49.474;10.944;2022-07-29T01:30:01;20.90;72.30
34099;DHT22;20374;49.474;10.944;2022-07-29T01:32:33;20.90;72.70
34099;DHT22;20374;49.474;10.944;2022-07-29T01:35:20;20.90;73.00
34099;DHT22;20374;49.474;10.944;2022-07-29T01:38:05;20.90;73.30
34099;DHT22;20374;49.474;10.944;2022-07-29T01:40:35;20.80;74.80
34099;DHT22;20374;49.474;10.944;2022-07-29T01:43:09;20.80;74.80
34099;DHT22;20374;49.474;10.944;2022-07-29T01:45:43;20.60;74.20
34099;DHT22;20374;49.474;10.944;2022-07-29T01:48:24;20.50;74.80
34099;DHT22;20374;49.474;10.944;2022-07-29T01:51:04;20.30;75.40
34099;DHT22;20374;49.474;10.944;2022-07-29T01:53:35;20.30;75.00
34099;DHT22;20374;49.474;10.944;2022-07-29T01:56:03;20.20;74.60
34099;DHT22;20374;49.474;10.944;2022-07-29T01:58:31;20.20;74.20
34099;DHT22;20374;49.474;10.944;2022-07-29T02:00:59;20.20;74.60
34099;DHT22;20374;49.474;10.944;2022-07-29T02:03:27;20.30;76.40
34099;DHT22;20374;49.474;10.944;2022-07-29T02:05:53;20.20;76.80
34099;DHT22;20374;49.474;10.944;2022-07-29T02:08:23;20.20;77.90
34099;DHT22;20374;49.474;10.944;2022-07-29T02:10:49;20.10;77.50
34099;DHT22;20374;49.474;10.944;2022-07-29T02:13:17;20.10;77.80
34099;DHT22;20374;49.474;10.944;2022-07-29T02:15:44;20.00;76.80
34099;DHT22;20374;49.474;10.944;2022-07-29T02:18:18;19.90;77.30
34099;DHT22;20374;49.474;10.944;2022-07-29T02:20:49;19.80;77.50
34099;DHT22;20374;49.474;10.944;2022-07-29T02:23:21;19.80;78.80
34099;DHT22;20374;49.474;10.944;2022-07-29T02:25:49;19.70;78.20
34099;DHT22;20374;49.474;10.944;2022-07-29T02:28:17;19.70;78.10
34099;DHT22;20374;49.474;10.944;2022-07-29T02:30:43;19.70;78.60
34099;DHT22;20374;49.474;10.944;2022-07-29T02:33:13;19.70;79.40
34099;DHT22;20374;49.474;10.944;2022-07-29T02:35:41;19.60;79.80
34099;DHT22;20374;49.474;10.944;2022-07-29T02:38:10;19.60;80.40
34099;DHT22;20374;49.474;10.944;2022-07-29T02:40:56;19.60;80.70
34099;DHT22;20374;49.474;10.944;2022-07-29T02:43:24;19.50;80.60
34099;DHT22;20374;49.474;10.944;2022-07-29T02:45:53;19.40;79.80
34099;DHT22;20374;49.474;10.944;2022-07-29T02:48:30;19.20;79.40
34099;DHT22;20374;49.474;10.944;2022-07-29T02:51:12;19.20;80.30
34099;DHT22;20374;49.474;10.944;2022-07-29T02:53:41;19.20;81.60
34099;DHT22;20374;49.474;10.944;2022-07-29T02:56:13;19.10;80.70
34099;DHT22;20374;49.474;10.944;2022-07-29T02:58:45;19.10;80.40
34099;DHT22;20374;49.474;10.944;2022-07-29T03:01:17;19.00;81.20
34099;DHT22;20374;49.474;10.944;2022-07-29T03:03:46;19.00;80.20
34099;DHT22;20374;49.474;10.944;2022-07-29T03:06:15;19.00;80.10
34099;DHT22;20374;49.474;10.944;2022-07-29T03:08:43;18.90;80.70
34099;DHT22;20374;49.474;10.944;2022-07-29T03:11:11;18.90;81.80
34099;DHT22;20374;49.474;10.944;2022-07-29T03:13:38;18.90;81.60
34099;DHT22;20374;49.474;10.944;2022-07-29T03:16:05;18.90;81.60
34099;DHT22;20374;49.474;10.944;2022-07-29T03:18:32;18.90;82.40
34099;DHT22;20374;49.474;10.944;2022-07-29T03:20:58;18.90;81.70
34099;DHT22;20374;49.474;10.944;2022-07-29T03:23:24;18.80;80.60
34099;DHT22;20374;49.474;10.944;2022-07-29T03:25:54;18.70;81.40
34099;DHT22;20374;49.474;10.944;2022-07-29T03:28:20;18.60;82.30
34099;DHT22;20374;49.474;10.944;2022-07-29T03:30:46;18.60;83.40
34099;DHT22;20374;49.474;10.944;2022-07-29T03:33:12;18.60;82.10
34099;DHT22;20374;49.474;10.944;2022-07-29T03:35:38;18.50;83.20
34099;DHT22;20374;49.474;10.944;2022-07-29T03:38:04;18.50;82.70
34099;DHT22;20374;49.474;10.944;2022-07-29T03:40:54;18.50;82.20
34099;DHT22;20374;49.474;10.944;2022-07-29T03:43:23;18.50;82.80
34099;DHT22;20374;49.474;10.944;2022-07-29T03:45:52;18.40;81.90
34099;DHT22;20374;49.474;10.944;2022-07-29T03:48:22;18.30;83.30
34099;DHT22;20374;49.474;10.944;2022-07-29T03:50:50;18.30;83.40
34099;DHT22;20374;49.474;10.944;2022-07-29T03:53:17;18.30;85.80
34099;DHT22;20374;49.474;10.944;2022-07-29T03:55:46;18.20;84.60
34099;DHT22;20374;49.474;10.944;2022-07-29T03:58:14;18.10;86.00
34099;DHT22;20374;49.474;10.944;2022-07-29T04:00:42;18.10;89.10
34099;DHT22;20374;49.474;10.944;2022-07-29T04:03:10;18.10;89.50
34099;DHT22;20374;49.474;10.944;2022-07-29T04:05:36;18.20;89.40
34099;DHT22;20374;49.474;10.944;2022-07-29T04:08:01;17.90;86.40
34099;DHT22;20374;49.474;10.944;2022-07-29T04:10:27;17.80;87.20
34099;DHT22;20374;49.474;10.944;2022-07-29T04:12:53;17.70;88.30
34099;DHT22;20374;49.474;10.944;2022-07-29T04:15:19;17.70;89.60
34099;DHT22;20374;49.474;10.944;2022-07-29T04:17:45;17.70;89.40
34099;DHT22;20374;49.474;10.944;2022-07-29T04:20:11;17.70;90.20
34099;DHT22;20374;49.474;10.944;2022-07-29T04:22:40;17.70;90.20
34099;DHT22;20374;49.474;10.944;2022-07-29T04:25:07;17.70;92.50
34099;DHT22;20374;49.474;10.944;2022-07-29T04:27:33;17.70;93.10
34099;DHT22;20374;49.474;10.944;2022-07-29T04:29:59;17.60;94.40
34099;DHT22;20374;49.474;10.944;2022-07-29T04:32:25;17.60;95.40
34099;DHT22;20374;49.474;10.944;2022-07-29T04:34:52;17.50;95.30
34099;DHT22;20374;49.474;10.944;2022-07-29T04:37:18;17.60;95.20
34099;DHT22;20374;49.474;10.944;2022-07-29T04:39:44;17.60;96.30
34099;DHT22;20374;49.474;10.944;2022-07-29T04:42:10;17.70;97.80
34099;DHT22;20374;49.474;10.944;2022-07-29T04:44:36;17.70;97.40
34099;DHT22;20374;49.474;10.944;2022-07-29T04:47:01;17.70;97.60
34099;DHT22;20374;49.474;10.944;2022-07-29T04:49:27;17.70;97.90
34099;DHT22;20374;49.474;10.944;2022-07-29T04:51:53;17.70;97.80
34099;DHT22;20374;49.474;10.944;2022-07-29T04:54:19;17.70;98.30
34099;DHT22;20374;49.474;10.944;2022-07-29T04:56:46;17.70;98.60
34099;DHT22;20374;49.474;10.944;2022-07-29T04:59:12;17.70;98.10
34099;DHT22;20374;49.474;10.944;2022-07-29T05:01:37;17.70;98.20
34099;DHT22;20374;49.474;10.944;2022-07-29T05:04:03;17.70;98.40
34099;DHT22;20374;49.474;10.944;2022-07-29T05:06:29;17.60;97.60
34099;DHT22;20374;49.474;10.944;2022-07-29T05:08:55;17.50;98.20
34099;DHT22;20374;49.474;10.944;2022-07-29T05:11:21;17.50;98.30
34099;DHT22;20374;49.474;10.944;2022-07-29T05:13:47;17.70;98.10
34099;DHT22;20374;49.474;10.944;2022-07-29T05:16:13;18.40;97.60
34099;DHT22;20374;49.474;10.944;2022-07-29T05:18:39;19.00;96.40
34099;DHT22;20374;49.474;10.944;2022-07-29T05:21:05;19.30;94.40
34099;DHT22;20374;49.474;10.944;2022-07-29T05:23:31;19.30;92.90
34099;DHT22;20374;49.474;10.944;2022-07-29T05:25:57;19.20;94.30
34099;DHT22;20374;49.474;10.944;2022-07-29T05:28:23;19.10;95.40
34099;DHT22;20374;49.474;10.944;2022-07-29T05:30:48;18.90;96.10
34099;DHT22;20374;49.474;10.944;2022-07-29T05:33:14;18.70;95.60
34099;DHT22;20374;49.474;10.944;2022-07-29T05:35:41;18.70;94.70
34099;DHT22;20374;49.474;10.944;2022-07-29T05:38:06;18.80;93.50
34099;DHT22;20374;49.474;10.944;2022-07-29T05:40:32;19.10;93.00
34099;DHT22;20374;49.474;10.944;2022-07-29T05:42:59;19.40;94.30
34099;DHT22;20374;49.474;10.944;2022-07-29T05:45:25;19.60;93.40
34099;DHT22;20374;49.474;10.944;2022-07-29T05:47:51;19.80;93.50
34099;DHT22;20374;49.474;10.944;2022-07-29T05:50:17;20.10;89.00
34099;DHT22;20374;49.474;10.944;2022-07-29T05:52:43;20.50;89.00
34099;DHT22;20374;49.474;10.944;2022-07-29T05:55:09;21.30;81.20
34099;DHT22;20374;49.474;10.944;2022-07-29T05:57:37;21.70;80.20
34099;DHT22;20374;49.474;10.944;2022-07-29T06:00:04;22.10;77.70
34099;DHT22;20374;49.474;10.944;2022-07-29T06:02:38;22.10;78.10
34099;DHT22;20374;49.474;10.944;2022-07-29T06:05:04;22.40;77.20
34099;DHT22;20374;49.474;10.944;2022-07-29T06:07:29;22.90;75.90
34099;DHT22;20374;49.474;10.944;2022-07-29T06:09:56;23.70;72.00
34099;DHT22;20374;49.474;10.944;2022-07-29T06:12:22;25.00;68.40
34099;DHT22;20374;49.474;10.944;2022-07-29T06:14:47;25.70;68.30
34099;DHT22;20374;49.474;10.944;2022-07-29T06:17:13;25.60;68.20
34099;DHT22;20374;49.474;10.944;2022-07-29T06:19:41;25.50;66.70
34099;DHT22;20374;49.474;10.944;2022-07-29T06:22:06;25.20;66.90
34099;DHT22;20374;49.474;10.944;2022-07-29T06:24:32;25.10;67.10
34099;DHT22;20374;49.474;10.944;2022-07-29T06:26:58;25.20;70.10
34099;DHT22;20374;49.474;10.944;2022-07-29T06:29:24;25.80;65.70
34099;DHT22;20374;49.474;10.944;2022-07-29T06:31:50;26.20;65.40
34099;DHT22;20374;49.474;10.944;2022-07-29T06:34:16;26.10;65.60
34099;DHT22;20374;49.474;10.944;2022-07-29T06:36:42;25.60;66.20
34099;DHT22;20374;49.474;10.944;2022-07-29T06:39:08;25.20;67.70
34099;DHT22;20374;49.474;10.944;2022-07-29T06:41:34;25.40;67.60
34099;DHT22;20374;49.474;10.944;2022-07-29T06:44:08;25.70;66.50
34099;DHT22;20374;49.474;10.944;2022-07-29T06:46:34;26.20;65.10
34099;DHT22;20374;49.474;10.944;2022-07-29T06:49:00;26.30;66.10
34099;DHT22;20374;49.474;10.944;2022-07-29T06:51:27;26.20;65.00
34099;DHT22;20374;49.474;10.944;2022-07-29T06:53:53;26.20;64.20
34099;DHT22;20374;49.474;10.944;2022-07-29T06:56:19;25.40;66.70
34099;DHT22;20374;49.474;10.944;2022-07-29T06:58:44;25.10;68.40
34099;DHT22;20374;49.474;10.944;2022-07-29T07:01:10;24.50;69.90
34099;DHT22;20374;49.474;10.944;2022-07-29T07:03:36;24.30;70.80
34099;DHT22;20374;49.474;10.944;2022-07-29T07:06:02;24.60;69.50
34099;DHT22;20374;49.474;10.944;2022-07-29T07:08:28;24.60;70.10
34099;DHT22;20374;49.474;10.944;2022-07-29T07:10:54;25.10;70.60
34099;DHT22;20374;49.474;10.944;2022-07-29T07:13:21;26.10;68.70
34099;DHT22;20374;49.474;10.944;2022-07-29T07:15:47;26.70;65.50
34099;DHT22;20374;49.474;10.944;2022-07-29T07:18:14;27.40;64.20
34099;DHT22;20374;49.474;10.944;2022-07-29T07:20:41;27.50;64.00
34099;DHT22;20374;49.474;10.944;2022-07-29T07:23:07;27.10;67.10
34099;DHT22;20374;49.474;10.944;2022-07-29T07:25:33;26.70;66.90
34099;DHT22;20374;49.474;10.944;2022-07-29T07:27:59;26.50;68.00
34099;DHT22;20374;49.474;10.944;2022-07-29T07:30:25;26.50;67.10
34099;DHT22;20374;49.474;10.944;2022-07-29T07:32:53;26.60;68.10
34099;DHT22;20374;49.474;10.944;2022-07-29T07:35:18;26.70;72.40
34099;DHT22;20374;49.474;10.944;2022-07-29T07:37:45;27.20;65.70
34099;DHT22;20374;49.474;10.944;2022-07-29T07:40:11;27.20;65.40
34099;DHT22;20374;49.474;10.944;2022-07-29T07:42:38;26.70;67.90
34099;DHT22;20374;49.474;10.944;2022-07-29T07:45:05;25.90;69.20
34099;DHT22;20374;49.474;10.944;2022-07-29T07:47:32;25.50;70.40
34099;DHT22;20374;49.474;10.944;2022-07-29T07:49:58;25.60;70.20
34099;DHT22;20374;49.474;10.944;2022-07-29T07:52:24;25.60;70.50
34099;DHT22;20374;49.474;10.944;2022-07-29T07:54:50;25.80;70.20
34099;DHT22;20374;49.474;10.944;2022-07-29T07:57:23;25.80;73.30
34099;DHT22;20374;49.474;10.944;2022-07-29T07:59:55;25.80;71.60
34099;DHT22;20374;49.474;10.944;2022-07-29T08:02:21;25.70;72.00
34099;DHT22;20374;49.474;10.944;2022-07-29T08:04:46;25.60;71.00
34099;DHT22;20374;49.474;10.944;2022-07-29T08:07:12;25.50;71.50
34099;DHT22;20374;49.474;10.944;2022-07-29T08:09:40;25.40;73.80
34099;DHT22;20374;49.474;10.944;2022-07-29T08:12:06;25.30;73.80
34099;DHT22;20374;49.474;10.944;2022-07-29T08:14:32;25.40;72.60
34099;DHT22;20374;49.474;10.944;2022-07-29T08:16:59;25.80;71.10
34099;DHT22;20374;49.474;10.944;2022-07-29T08:19:24;26.20;70.00
34099;DHT22;20374;49.474;10.944;2022-07-29T08:21:51;26.30;69.40
34099;DHT22;20374;49.474;10.944;2022-07-29T08:24:19;26.20;71.00
34099;DHT22;20374;49.474;10.944;2022-07-29T08:27:06;26.10;71.20
34099;DHT22;20374;49.474;10.944;2022-07-29T08:29:32;25.90;72.60
34099;DHT22;20374;49.474;10.944;2022-07-29T08:31:58;26.00;72.90
34099;DHT22;20374;49.474;10.944;2022-07-29T08:34:24;26.40;70.80
34099;DHT22;20374;49.474;10.944;2022-07-29T08:36:51;26.70;69.60
34099;DHT22;20374;49.474;10.944;2022-07-29T08:39:17;27.10;69.10
34099;DHT22;20374;49.474;10.944;2022-07-29T08:41:43;27.40;69.10
34099;DHT22;20374;49.474;10.944;2022-07-29T08:44:09;27.60;68.60
34099;DHT22;20374;49.474;10.944;2022-07-29T08:46:37;28.00;66.90
34099;DHT22;20374;49.474;10.944;2022-07-29T08:49:05;28.00;67.10
34099;DHT22;20374;49.474;10.944;2022-07-29T08:51:33;28.20;66.80
34099;DHT22;20374;49.474;10.944;2022-07-29T08:54:01;28.50;65.80
34099;DHT22;20374;49.474;10.944;2022-07-29T08:56:27;28.80;65.10
34099;DHT22;20374;49.474;10.944;2022-07-29T08:58:54;28.90;62.30
34099;DHT22;20374;49.474;10.944;2022-07-29T09:01:25;28.30;64.30
34099;DHT22;20374;49.474;10.944;2022-07-29T09:03:55;28.20;62.90
34099;DHT22;20374;49.474;10.944;2022-07-29T09:06:22;28.00;63.80
34099;DHT22;20374;49.474;10.944;2022-07-29T09:08:52;27.70;64.10
34099;DHT22;20374;49.474;10.944;2022-07-29T09:11:18;27.30;64.70
34099;DHT22;20374;49.474;10.944;2022-07-29T09:13:44;27.30;65.30
34099;DHT22;20374;49.474;10.944;2022-07-29T09:16:10;27.60;62.90
34099;DHT22;20374;49.474;10.944;2022-07-29T09:18:40;27.70;62.40
34099;DHT22;20374;49.474;10.944;2022-07-29T09:21:09;27.90;62.00
34099;DHT22;20374;49.474;10.944;2022-07-29T09:24:07;28.10;63.20
34099;DHT22;20374;49.474;10.944;2022-07-29T09:26:40;28.20;63.00
34099;DHT22;20374;49.474;10.944;2022-07-29T09:29:16;28.40;61.50
34099;DHT22;20374;49.474;10.944;2022-07-29T09:31:45;28.20;62.70
34099;DHT22;20374;49.474;10.944;2022-07-29T09:34:13;27.70;62.50
34099;DHT22;20374;49.474;10.944;2022-07-29T09:36:41;27.10;61.70
34099;DHT22;20374;49.474;10.944;2022-07-29T09:39:11;26.70;64.30
34099;DHT22;20374;49.474;10.944;2022-07-29T09:41:50;26.50;65.70
34099;DHT22;20374;49.474;10.944;2022-07-29T09:44:21;26.30;66.70
34099;DHT22;20374;49.474;10.944;2022-07-29T09:47:02;26.30;66.50
34099;DHT22;20374;49.474;10.944;2022-07-29T09:49:36;26.60;65.60
34099;DHT22;20374;49.474;10.944;2022-07-29T09:52:15;27.00;64.50
34099;DHT22;20374;49.474;10.944;2022-07-29T09:54:41;27.40;63.90
34099;DHT22;20374;49.474;10.944;2022-07-29T09:57:27;27.40;65.60
34099;DHT22;20374;49.474;10.944;2022-07-29T10:02:39;27.30;66.80
34099;DHT22;20374;49.474;10.944;2022-07-29T10:05:16;27.30;63.20
34099;DHT22;20374;49.474;10.944;2022-07-29T10:07:49;27.50;62.70
34099;DHT22;20374;49.474;10.944;2022-07-29T10:12:57;27.70;62.00
34099;DHT22;20374;49.474;10.944;2022-07-29T10:15:25;27.70;62.90
34099;DHT22;20374;49.474;10.944;2022-07-29T10:17:53;27.60;62.70
34099;DHT22;20374;49.474;10.944;2022-07-29T10:20:20;27.80;62.40
34099;DHT22;20374;49.474;10.944;2022-07-29T10:22:47;27.90;62.90
34099;DHT22;20374;49.474;10.944;2022-07-29T10:25:15;28.10;59.60
34099;DHT22;20374;49.474;10.944;2022-07-29T10:27:42;28.10;59.10
34099;DHT22;20374;49.474;10.944;2022-07-29T10:30:09;28.20;58.80
34099;DHT22;20374;49.474;10.944;2022-07-29T10:33:28;28.20;59.10
34099;DHT22;20374;49.474;10.944;2022-07-29T10:38:48;28.60;58.30
34099;DHT22;20374;49.474;10.944;2022-07-29T10:44:05;28.30;59.80
34099;DHT22;20374;49.474;10.944;2022-07-29T10:46:36;28.30;59.60
34099;DHT22;20374;49.474;10.944;2022-07-29T10:49:20;28.50;58.50
34099;DHT22;20374;49.474;10.944;2022-07-29T10:52:01;28.60;58.10
34099;DHT22;20374;49.474;10.944;2022-07-29T10:57:24;28.90;57.40
34099;DHT22;20374;49.474;10.944;2022-07-29T11:07:36;28.90;56.90
34099;DHT22;20374;49.474;10.944;2022-07-29T11:15:51;28.60;57.70
34099;DHT22;20374;49.474;10.944;2022-07-29T11:18:16;28.50;58.80
34099;DHT22;20374;49.474;10.944;2022-07-29T11:20:43;28.50;58.30
34099;DHT22;20374;49.474;10.944;2022-07-29T11:23:29;28.40;59.20
34099;DHT22;20374;49.474;10.944;2022-07-29T11:31:39;28.40;59.00
34099;DHT22;20374;49.474;10.944;2022-07-29T11:40:22;27.90;58.70
34099;DHT22;20374;49.474;10.944;2022-07-29T11:45:03;28.00;61.00
34099;DHT22;20374;49.474;10.944;2022-07-29T11:47:37;28.00;59.60
34099;DHT22;20374;49.474;10.944;2022-07-29T11:50:05;28.40;59.00
34099;DHT22;20374;49.474;10.944;2022-07-29T11:52:43;28.50;57.90
34099;DHT22;20374;49.474;10.944;2022-07-29T11:55:19;28.70;57.80
34099;DHT22;20374;49.474;10.944;2022-07-29T11:57:47;28.90;58.30
34099;DHT22;20374;49.474;10.944;2022-07-29T12:00:30;29.20;56.30
34099;DHT22;20374;49.474;10.944;2022-07-29T12:02:58;29.30;57.30
34099;DHT22;20374;49.474;10.944;2022-07-29T12:05:33;29.40;56.90
34099;DHT22;20374;49.474;10.944;2022-07-29T12:08:10;29.60;57.00
34099;DHT22;20374;49.474;10.944;2022-07-29T12:10:38;29.70;56.10
34099;DHT22;20374;49.474;10.944;2022-07-29T12:13:04;29.50;56.40
34099;DHT22;20374;49.474;10.944;2022-07-29T12:15:30;29.50;56.20
34099;DHT22;20374;49.474;10.944;2022-07-29T12:17:56;29.40;57.60
34099;DHT22;20374;49.474;10.944;2022-07-29T12:20:29;29.40;56.80
34099;DHT22;20374;49.474;10.944;2022-07-29T12:22:56;29.60;55.60
34099;DHT22;20374;49.474;10.944;2022-07-29T12:25:23;29.70;55.10
34099;DHT22;20374;49.474;10.944;2022-07-29T12:28:00;29.80;55.10
34099;DHT22;20374;49.474;10.944;2022-07-29T12:30:41;29.90;55.20
34099;DHT22;20374;49.474;10.944;2022-07-29T12:33:12;29.80;55.00
34099;DHT22;20374;49.474;10.944;2022-07-29T12:35:39;29.80;55.40
34099;DHT22;20374;49.474;10.944;2022-07-29T12:38:05;29.90;54.80
34099;DHT22;20374;49.474;10.944;2022-07-29T12:40:31;30.00;55.00
34099;DHT22;20374;49.474;10.944;2022-07-29T12:43:15;29.80;55.50
34099;DHT22;20374;49.474;10.944;2022-07-29T12:45:45;29.70;55.20
34099;DHT22;20374;49.474;10.944;2022-07-29T12:48:11;29.60;55.00
34099;DHT22;20374;49.474;10.944;2022-07-29T12:50:59;29.50;55.70
34099;DHT22;20374;49.474;10.944;2022-07-29T12:53:25;29.40;55.90
34099;DHT22;20374;49.474;10.944;2022-07-29T12:55:53;29.30;56.60
34099;DHT22;20374;49.474;10.944;2022-07-29T12:58:31;29.20;56.40
34099;DHT22;20374;49.474;10.944;2022-07-29T13:01:07;29.30;57.00
34099;DHT22;20374;49.474;10.944;2022-07-29T13:03:58;29.30;56.20
34099;DHT22;20374;49.474;10.944;2022-07-29T13:11:38;28.90;58.70
34099;DHT22;20374;49.474;10.944;2022-07-29T13:14:06;28.90;57.50
34099;DHT22;20374;49.474;10.944;2022-07-29T13:16:34;29.00;58.60
34099;DHT22;20374;49.474;10.944;2022-07-29T13:21:30;29.00;57.90
34099;DHT22;20374;49.474;10.944;2022-07-29T13:23:56;29.20;56.70
34099;DHT22;20374;49.474;10.944;2022-07-29T13:26:22;29.40;56.80
34099;DHT22;20374;49.474;10.944;2022-07-29T13:28:48;29.50;56.50
34099;DHT22;20374;49.474;10.944;2022-07-29T13:31:14;29.40;56.50
34099;DHT22;20374;49.474;10.944;2022-07-29T13:33:40;29.40;57.10
34099;DHT22;20374;49.474;10.944;2022-07-29T13:36:06;29.40;56.50
34099;DHT22;20374;49.474;10.944;2022-07-29T13:38:32;29.30;57.50
34099;DHT22;20374;49.474;10.944;2022-07-29T13:40:58;29.10;56.90
34099;DHT22;20374;49.474;10.944;2022-07-29T13:43:27;29.00;57.50
34099;DHT22;20374;49.474;10.944;2022-07-29T13:45:53;28.90;57.40
34099;DHT22;20374;49.474;10.944;2022-07-29T13:48:19;28.40;58.40
34099;DHT22;20374;49.474;10.944;2022-07-29T13:50:45;27.80;60.00
34099;DHT22;20374;49.474;10.944;2022-07-29T13:53:12;27.40;61.40
34099;DHT22;20374;49.474;10.944;2022-07-29T13:55:38;27.10;62.80
34099;DHT22;20374;49.474;10.944;2022-07-29T13:58:04;27.00;63.80
34099;DHT22;20374;49.474;10.944;2022-07-29T14:00:30;26.60;64.70
34099;DHT22;20374;49.474;10.944;2022-07-29T14:02:56;26.50;64.20
34099;DHT22;20374;49.474;10.944;2022-07-29T14:05:23;26.20;64.10
34099;DHT22;20374;49.474;10.944;2022-07-29T14:07:48;26.20;62.80
34099;DHT22;20374;49.474;10.944;2022-07-29T14:10:14;26.20;61.90
34099;DHT22;20374;49.474;10.944;2022-07-29T14:12:40;26.30;61.00
34099;DHT22;20374;49.474;10.944;2022-07-29T14:15:07;26.20;62.30
34099;DHT22;20374;49.474;10.944;2022-07-29T14:17:34;26.20;62.10
34099;DHT22;20374;49.474;10.944;2022-07-29T14:20:00;26.10;61.90
34099;DHT22;20374;49.474;10.944;2022-07-29T14:22:26;25.90;61.90
34099;DHT22;20374;49.474;10.944;2022-07-29T14:24:52;25.90;61.70
34099;DHT22;20374;49.474;10.944;2022-07-29T14:27:18;26.00;63.00
34099;DHT22;20374;49.474;10.944;2022-07-29T14:29:44;26.20;61.60
34099;DHT22;20374;49.474;10.944;2022-07-29T14:32:10;26.10;63.50
34099;DHT22;20374;49.474;10.944;2022-07-29T14:34:36;26.10;66.50
34099;DHT22;20374;49.474;10.944;2022-07-29T14:37:03;26.00;65.90
34099;DHT22;20374;49.474;10.944;2022-07-29T14:39:31;26.00;66.20
34099;DHT22;20374;49.474;10.944;2022-07-29T14:41:57;26.00;65.30
34099;DHT22;20374;49.474;10.944;2022-07-29T14:44:23;26.00;65.40
34099;DHT22;20374;49.474;10.944;2022-07-29T14:49:17;25.90;65.00
34099;DHT22;20374;49.474;10.944;2022-07-29T14:51:43;25.80;66.40
34099;DHT22;20374;49.474;10.944;2022-07-29T14:54:09;25.70;69.50
34099;DHT22;20374;49.474;10.944;2022-07-29T14:56:35;25.50;71.70
34099;DHT22;20374;49.474;10.944;2022-07-29T14:59:01;25.40;71.80
34099;DHT22;20374;49.474;10.944;2022-07-29T15:01:27;25.40;71.80
34099;DHT22;20374;49.474;10.944;2022-07-29T15:03:53;25.10;72.80
34099;DHT22;20374;49.474;10.944;2022-07-29T15:06:19;24.90;74.00
34099;DHT22;20374;49.474;10.944;2022-07-29T15:08:45;24.90;74.40
34099;DHT22;20374;49.474;10.944;2022-07-29T15:11:11;24.90;74.40
34099;DHT22;20374;49.474;10.944;2022-07-29T15:13:37;24.90;74.50
34099;DHT22;20374;49.474;10.944;2022-07-29T15:16:05;24.90;73.30
34099;DHT22;20374;49.474;10.944;2022-07-29T15:18:34;25.00;74.30
34099;DHT22;20374;49.474;10.944;2022-07-29T15:21:00;24.90;77.50
34099;DHT22;20374;49.474;10.944;2022-07-29T15:23:27;24.70;84.80
34099;DHT22;20374;49.474;10.944;2022-07-29T15:25:53;24.30;88.10
34099;DHT22;20374;49.474;10.944;2022-07-29T15:28:19;23.80;91.00
34099;DHT22;20374;49.474;10.944;2022-07-29T15:30:45;23.30;92.80
34099;DHT22;20374;49.474;10.944;2022-07-29T15:33:11;22.90;95.20
34099;DHT22;20374;49.474;10.944;2022-07-29T15:35:37;22.50;98.30
34099;DHT22;20374;49.474;10.944;2022-07-29T15:38:03;22.20;99.90
34099;DHT22;20374;49.474;10.944;2022-07-29T15:40:29;22.00;99.90
34099;DHT22;20374;49.474;10.944;2022-07-29T15:42:56;21.90;99.90
34099;DHT22;20374;49.474;10.944;2022-07-29T15:45:23;21.70;99.90
34099;DHT22;20374;49.474;10.944;2022-07-29T15:47:48;21.50;99.90
34099;DHT22;20374;49.474;10.944;2022-07-29T15:50:14;21.30;99.90
34099;DHT22;20374;49.474;10.944;2022-07-29T15:52:42;21.20;99.90
34099;DHT22;20374;49.474;10.944;2022-07-29T15:55:08;21.10;99.90
34099;DHT22;20374;49.474;10.944;2022-07-29T15:57:34;21.00;99.90
34099;DHT22;20374;49.474;10.944;2022-07-29T16:00:00;20.80;99.90
34099;DHT22;20374;49.474;10.944;2022-07-29T16:02:26;20.70;99.90
34099;DHT22;20374;49.474;10.944;2022-07-29T16:04:52;20.60;99.90
34099;DHT22;20374;49.474;10.944;2022-07-29T16:07:17;20.50;99.90
34099;DHT22;20374;49.474;10.944;2022-07-29T16:09:44;20.40;99.90
34099;DHT22;20374;49.474;10.944;2022-07-29T16:12:10;20.20;99.90
34099;DHT22;20374;49.474;10.944;2022-07-29T16:14:36;20.10;99.90
34099;DHT22;20374;49.474;10.944;2022-07-29T16:17:02;20.10;99.90
34099;DHT22;20374;49.474;10.944;2022-07-29T16:19:30;20.20;99.90